sensor_id;sensor_type;location;lat;lon;timestamp;P1;durP1;ratioP1;P2;durP2;ratioP2
62790;SDS011;48830;53.426;10.300;2022-12-10T00:00:00;24.37;;;11.23;;
62790;SDS011;48830;53.426;10.300;2022-12-10T00:02:26;30.17;;;11.93;;
62790;SDS011;48830;53.426;10.300;2022-12-10T00:04:52;33.43;;;11.97;;
62790;SDS011;48830;53.426;10.300;2022-12-10T00:07:20;27.73;;;11.53;;
62790;SDS011;48830;53.426;10.300;2022-12-10T00:09:46;28.13;;;12.00;;
62790;SDS011;48830;53.426;10.300;2022-12-10T00:12:11;27.80;;;10.83;;
62790;SDS011;48830;53.426;10.300;2022-12-10T00:14:39;24.37;;;11.00;;
62790;SDS011;48830;53.426;10.300;2022-12-10T00:17:05;26.20;;;11.10;;
62790;SDS011;48830;53.426;10.300;2022-12-10T00:19:36;23.03;;;10.63;;
62790;SDS011;48830;53.426;10.300;2022-12-10T00:22:02;30.53;;;12.23;;
62790;SDS011;48830;53.426;10.300;2022-12-10T00:24:28;25.03;;;11.67;;
62790;SDS011;48830;53.426;10.300;2022-12-10T00:26:54;23.30;;;10.53;;
62790;SDS011;48830;53.426;10.300;2022-12-10T00:29:22;27.53;;;11.37;;
62790;SDS011;48830;53.426;10.300;2022-12-10T00:31:50;27.63;;;11.67;;
62790;SDS011;48830;53.426;10.300;2022-12-10T00:34:19;26.93;;;11.00;;
62790;SDS011;48830;53.426;10.300;2022-12-10T00:36:47;22.50;;;10.37;;
62790;SDS011;48830;53.426;10.300;2022-12-10T00:39:16;23.30;;;10.30;;
62790;SDS011;48830;53.426;10.300;2022-12-10T00:41:46;26.70;;;11.40;;
62790;SDS011;48830;53.426;10.300;2022-12-10T00:44:12;25.40;;;10.43;;
62790;SDS011;48830;53.426;10.300;2022-12-10T00:46:38;24.13;;;10.60;;
62790;SDS011;48830;53.426;10.300;2022-12-10T00:49:07;22.13;;;10.30;;
62790;SDS011;48830;53.426;10.300;2022-12-10T00:51:35;26.30;;;10.50;;
62790;SDS011;48830;53.426;10.300;2022-12-10T00:54:01;21.83;;;9.47;;
62790;SDS011;48830;53.426;10.300;2022-12-10T00:56:30;22.67;;;9.87;;
62790;SDS011;48830;53.426;10.300;2022-12-10T00:58:58;21.73;;;10.17;;
62790;SDS011;48830;53.426;10.300;2022-12-10T01:01:31;19.97;;;9.47;;
62790;SDS011;48830;53.426;10.300;2022-12-10T01:03:57;19.83;;;9.03;;
62790;SDS011;48830;53.426;10.300;2022-12-10T01:08:55;18.97;;;9.00;;
62790;SDS011;48830;53.426;10.300;2022-12-10T01:11:29;22.03;;;10.23;;
62790;SDS011;48830;53.426;10.300;2022-12-10T01:13:57;21.80;;;9.37;;
62790;SDS011;48830;53.426;10.300;2022-12-10T01:16:23;22.10;;;9.90;;
62790;SDS011;48830;53.426;10.300;2022-12-10T01:18:54;19.00;;;8.73;;
62790;SDS011;48830;53.426;10.300;2022-12-10T01:21:21;18.83;;;8.67;;
62790;SDS011;48830;53.426;10.300;2022-12-10T01:23:56;21.40;;;9.80;;
62790;SDS011;48830;53.426;10.300;2022-12-10T01:26:25;22.87;;;9.60;;
62790;SDS011;48830;53.426;10.300;2022-12-10T01:28:54;20.80;;;9.83;;
62790;SDS011;48830;53.426;10.300;2022-12-10T01:31:25;21.63;;;9.13;;
62790;SDS011;48830;53.426;10.300;2022-12-10T01:33:55;20.77;;;9.63;;
62790;SDS011;48830;53.426;10.300;2022-12-10T01:36:26;19.63;;;9.97;;
62790;SDS011;48830;53.426;10.300;2022-12-10T01:38:54;18.70;;;8.47;;
62790;SDS011;48830;53.426;10.300;2022-12-10T01:41:24;19.90;;;9.67;;
62790;SDS011;48830;53.426;10.300;2022-12-10T01:46:21;18.83;;;9.43;;
62790;SDS011;48830;53.426;10.300;2022-12-10T01:48:49;21.33;;;10.47;;
62790;SDS011;48830;53.426;10.300;2022-12-10T01:51:22;19.70;;;9.40;;
62790;SDS011;48830;53.426;10.300;2022-12-10T01:53:50;17.87;;;8.70;;
62790;SDS011;48830;53.426;10.300;2022-12-10T01:56:17;19.20;;;8.93;;
62790;SDS011;48830;53.426;10.300;2022-12-10T01:58:45;20.43;;;10.10;;
62790;SDS011;48830;53.426;10.300;2022-12-10T02:13:08;20.07;;;9.60;;
62790;SDS011;48830;53.426;10.300;2022-12-10T02:15:41;24.17;;;11.40;;
62790;SDS011;48830;53.426;10.300;2022-12-10T02:18:14;22.83;;;9.90;;
62790;SDS011;48830;53.426;10.300;2022-12-10T02:21:08;20.00;;;9.17;;
62790;SDS011;48830;53.426;10.300;2022-12-10T02:23:38;19.83;;;9.63;;
62790;SDS011;48830;53.426;10.300;2022-12-10T02:31:14;23.27;;;10.30;;
62790;SDS011;48830;53.426;10.300;2022-12-10T02:33:44;21.17;;;10.30;;
62790;SDS011;48830;53.426;10.300;2022-12-10T02:36:14;15.00;;;7.53;;
62790;SDS011;48830;53.426;10.300;2022-12-10T02:38:46;12.83;;;5.97;;
62790;SDS011;48830;53.426;10.300;2022-12-10T02:41:20;10.17;;;5.30;;
62790;SDS011;48830;53.426;10.300;2022-12-10T02:43:52;12.73;;;5.53;;
62790;SDS011;48830;53.426;10.300;2022-12-10T02:46:20;11.67;;;6.47;;
62790;SDS011;48830;53.426;10.300;2022-12-10T02:48:56;17.60;;;8.07;;
62790;SDS011;48830;53.426;10.300;2022-12-10T02:51:28;18.00;;;9.10;;
62790;SDS011;48830;53.426;10.300;2022-12-10T02:54:06;20.93;;;8.83;;
62790;SDS011;48830;53.426;10.300;2022-12-10T02:56:54;19.77;;;10.23;;
62790;SDS011;48830;53.426;10.300;2022-12-10T02:59:38;18.00;;;9.67;;
62790;SDS011;48830;53.426;10.300;2022-12-10T03:02:14;15.83;;;8.37;;
62790;SDS011;48830;53.426;10.300;2022-12-10T03:05:02;13.03;;;7.37;;
62790;SDS011;48830;53.426;10.300;2022-12-10T03:08:17;15.07;;;7.30;;
62790;SDS011;48830;53.426;10.300;2022-12-10T03:10:55;13.93;;;7.03;;
62790;SDS011;48830;53.426;10.300;2022-12-10T03:13:35;13.80;;;6.23;;
62790;SDS011;48830;53.426;10.300;2022-12-10T03:16:05;11.07;;;6.30;;
62790;SDS011;48830;53.426;10.300;2022-12-10T03:18:32;11.97;;;6.60;;
62790;SDS011;48830;53.426;10.300;2022-12-10T03:21:01;13.67;;;7.43;;
62790;SDS011;48830;53.426;10.300;2022-12-10T03:23:30;14.53;;;8.00;;
62790;SDS011;48830;53.426;10.300;2022-12-10T03:26:02;14.70;;;7.97;;
62790;SDS011;48830;53.426;10.300;2022-12-10T03:28:30;12.57;;;6.73;;
62790;SDS011;48830;53.426;10.300;2022-12-10T03:30:59;14.63;;;7.40;;
62790;SDS011;48830;53.426;10.300;2022-12-10T03:33:30;15.23;;;7.43;;
62790;SDS011;48830;53.426;10.300;2022-12-10T03:35:57;17.10;;;7.90;;
62790;SDS011;48830;53.426;10.300;2022-12-10T03:38:25;14.57;;;7.67;;
62790;SDS011;48830;53.426;10.300;2022-12-10T03:40:54;14.03;;;7.67;;
62790;SDS011;48830;53.426;10.300;2022-12-10T03:43:24;16.97;;;8.50;;
62790;SDS011;48830;53.426;10.300;2022-12-10T03:45:50;15.73;;;8.20;;
62790;SDS011;48830;53.426;10.300;2022-12-10T03:48:16;15.77;;;8.10;;
62790;SDS011;48830;53.426;10.300;2022-12-10T03:50:47;17.33;;;8.17;;
62790;SDS011;48830;53.426;10.300;2022-12-10T03:53:13;15.97;;;8.13;;
62790;SDS011;48830;53.426;10.300;2022-12-10T03:55:39;16.40;;;8.93;;
62790;SDS011;48830;53.426;10.300;2022-12-10T03:58:08;16.70;;;8.50;;
62790;SDS011;48830;53.426;10.300;2022-12-10T04:00:34;17.17;;;8.73;;
62790;SDS011;48830;53.426;10.300;2022-12-10T04:03:02;16.93;;;9.03;;
62790;SDS011;48830;53.426;10.300;2022-12-10T04:05:28;15.50;;;8.60;;
62790;SDS011;48830;53.426;10.300;2022-12-10T04:07:54;15.37;;;8.33;;
62790;SDS011;48830;53.426;10.300;2022-12-10T04:10:30;14.77;;;8.00;;
62790;SDS011;48830;53.426;10.300;2022-12-10T04:13:00;17.33;;;8.73;;
62790;SDS011;48830;53.426;10.300;2022-12-10T04:15:49;17.43;;;8.40;;
62790;SDS011;48830;53.426;10.300;2022-12-10T04:18:34;16.43;;;7.87;;
62790;SDS011;48830;53.426;10.300;2022-12-10T04:20:59;13.77;;;7.20;;
62790;SDS011;48830;53.426;10.300;2022-12-10T04:23:44;14.40;;;7.07;;
62790;SDS011;48830;53.426;10.300;2022-12-10T04:26:31;14.63;;;7.97;;
62790;SDS011;48830;53.426;10.300;2022-12-10T04:29:16;14.63;;;7.70;;
62790;SDS011;48830;53.426;10.300;2022-12-10T04:31:49;15.07;;;7.90;;
62790;SDS011;48830;53.426;10.300;2022-12-10T04:34:18;15.23;;;8.20;;
62790;SDS011;48830;53.426;10.300;2022-12-10T04:36:47;14.10;;;6.97;;
62790;SDS011;48830;53.426;10.300;2022-12-10T04:39:15;14.70;;;7.60;;
62790;SDS011;48830;53.426;10.300;2022-12-10T04:41:43;13.00;;;7.40;;
62790;SDS011;48830;53.426;10.300;2022-12-10T04:44:10;12.07;;;6.70;;
62790;SDS011;48830;53.426;10.300;2022-12-10T04:46:41;12.53;;;7.20;;
62790;SDS011;48830;53.426;10.300;2022-12-10T04:49:06;13.57;;;6.97;;
62790;SDS011;48830;53.426;10.300;2022-12-10T04:51:37;14.97;;;7.13;;
62790;SDS011;48830;53.426;10.300;2022-12-10T04:54:06;12.17;;;7.33;;
62790;SDS011;48830;53.426;10.300;2022-12-10T04:56:33;13.40;;;7.27;;
62790;SDS011;48830;53.426;10.300;2022-12-10T04:58:59;24.10;;;11.17;;
62790;SDS011;48830;53.426;10.300;2022-12-10T05:01:28;15.93;;;7.83;;
62790;SDS011;48830;53.426;10.300;2022-12-10T05:03:59;14.97;;;7.60;;
62790;SDS011;48830;53.426;10.300;2022-12-10T05:06:29;13.43;;;7.03;;
62790;SDS011;48830;53.426;10.300;2022-12-10T05:08:59;14.23;;;7.63;;
62790;SDS011;48830;53.426;10.300;2022-12-10T05:11:25;22.23;;;10.50;;
62790;SDS011;48830;53.426;10.300;2022-12-10T05:13:55;14.43;;;7.83;;
62790;SDS011;48830;53.426;10.300;2022-12-10T05:16:22;15.77;;;8.70;;
62790;SDS011;48830;53.426;10.300;2022-12-10T05:18:50;77.00;;;29.80;;
62790;SDS011;48830;53.426;10.300;2022-12-10T05:21:17;40.70;;;18.30;;
62790;SDS011;48830;53.426;10.300;2022-12-10T05:23:46;52.43;;;22.90;;
62790;SDS011;48830;53.426;10.300;2022-12-10T05:26:16;14.60;;;7.77;;
62790;SDS011;48830;53.426;10.300;2022-12-10T05:28:47;12.50;;;7.00;;
62790;SDS011;48830;53.426;10.300;2022-12-10T05:31:16;12.37;;;7.03;;
62790;SDS011;48830;53.426;10.300;2022-12-10T05:33:48;12.83;;;7.07;;
62790;SDS011;48830;53.426;10.300;2022-12-10T05:36:19;13.93;;;7.10;;
62790;SDS011;48830;53.426;10.300;2022-12-10T05:38:52;13.97;;;7.60;;
62790;SDS011;48830;53.426;10.300;2022-12-10T05:41:28;17.27;;;8.50;;
62790;SDS011;48830;53.426;10.300;2022-12-10T05:44:01;14.93;;;7.63;;
62790;SDS011;48830;53.426;10.300;2022-12-10T05:46:29;14.97;;;8.37;;
62790;SDS011;48830;53.426;10.300;2022-12-10T05:48:59;13.10;;;7.40;;
62790;SDS011;48830;53.426;10.300;2022-12-10T05:51:28;15.57;;;8.37;;
62790;SDS011;48830;53.426;10.300;2022-12-10T05:53:58;28.10;;;12.57;;
62790;SDS011;48830;53.426;10.300;2022-12-10T05:56:29;197.37;;;67.93;;
62790;SDS011;48830;53.426;10.300;2022-12-10T05:58:58;189.97;;;68.07;;
62790;SDS011;48830;53.426;10.300;2022-12-10T06:01:30;24.43;;;12.47;;
62790;SDS011;48830;53.426;10.300;2022-12-10T06:04:00;18.87;;;9.50;;
62790;SDS011;48830;53.426;10.300;2022-12-10T06:06:30;14.17;;;7.70;;
62790;SDS011;48830;53.426;10.300;2022-12-10T06:09:00;29.87;;;13.27;;
62790;SDS011;48830;53.426;10.300;2022-12-10T06:11:28;42.13;;;18.63;;
62790;SDS011;48830;53.426;10.300;2022-12-10T06:13:57;135.63;;;49.20;;
62790;SDS011;48830;53.426;10.300;2022-12-10T06:16:27;199.77;;;68.03;;
62790;SDS011;48830;53.426;10.300;2022-12-10T06:18:56;59.27;;;26.33;;
62790;SDS011;48830;53.426;10.300;2022-12-10T06:21:22;123.97;;;58.63;;
62790;SDS011;48830;53.426;10.300;2022-12-10T06:23:48;84.77;;;57.23;;
62790;SDS011;48830;53.426;10.300;2022-12-10T06:26:17;57.60;;;39.10;;
62790;SDS011;48830;53.426;10.300;2022-12-10T06:28:48;36.67;;;20.83;;
62790;SDS011;48830;53.426;10.300;2022-12-10T06:31:15;21.13;;;13.23;;
62790;SDS011;48830;53.426;10.300;2022-12-10T06:33:47;16.93;;;9.73;;
62790;SDS011;48830;53.426;10.300;2022-12-10T06:36:17;12.60;;;7.47;;
62790;SDS011;48830;53.426;10.300;2022-12-10T06:38:47;10.60;;;6.27;;
62790;SDS011;48830;53.426;10.300;2022-12-10T06:41:14;10.00;;;5.43;;
62790;SDS011;48830;53.426;10.300;2022-12-10T06:43:45;11.20;;;5.70;;
62790;SDS011;48830;53.426;10.300;2022-12-10T06:46:12;12.53;;;6.40;;
62790;SDS011;48830;53.426;10.300;2022-12-10T06:48:40;10.83;;;5.87;;
62790;SDS011;48830;53.426;10.300;2022-12-10T06:51:07;8.83;;;5.10;;
62790;SDS011;48830;53.426;10.300;2022-12-10T06:53:34;10.90;;;5.73;;
62790;SDS011;48830;53.426;10.300;2022-12-10T06:56:04;12.53;;;6.40;;
62790;SDS011;48830;53.426;10.300;2022-12-10T06:58:40;15.17;;;7.97;;
62790;SDS011;48830;53.426;10.300;2022-12-10T07:01:10;13.63;;;7.50;;
62790;SDS011;48830;53.426;10.300;2022-12-10T07:03:38;13.30;;;7.40;;
62790;SDS011;48830;53.426;10.300;2022-12-10T07:06:10;16.03;;;7.80;;
62790;SDS011;48830;53.426;10.300;2022-12-10T07:08:39;16.80;;;7.97;;
62790;SDS011;48830;53.426;10.300;2022-12-10T07:11:06;14.70;;;7.50;;
62790;SDS011;48830;53.426;10.300;2022-12-10T07:13:35;15.87;;;8.57;;
62790;SDS011;48830;53.426;10.300;2022-12-10T07:16:14;11.10;;;6.07;;
62790;SDS011;48830;53.426;10.300;2022-12-10T07:18:45;13.40;;;7.13;;
62790;SDS011;48830;53.426;10.300;2022-12-10T07:21:16;14.20;;;7.37;;
62790;SDS011;48830;53.426;10.300;2022-12-10T07:23:43;12.07;;;7.00;;
62790;SDS011;48830;53.426;10.300;2022-12-10T07:26:09;14.23;;;7.37;;
62790;SDS011;48830;53.426;10.300;2022-12-10T07:28:38;12.50;;;6.03;;
62790;SDS011;48830;53.426;10.300;2022-12-10T07:31:04;12.67;;;6.80;;
62790;SDS011;48830;53.426;10.300;2022-12-10T07:33:33;13.47;;;6.37;;
62790;SDS011;48830;53.426;10.300;2022-12-10T07:36:08;12.70;;;6.60;;
62790;SDS011;48830;53.426;10.300;2022-12-10T07:38:43;13.83;;;7.13;;
62790;SDS011;48830;53.426;10.300;2022-12-10T07:41:09;11.63;;;6.67;;
62790;SDS011;48830;53.426;10.300;2022-12-10T07:43:39;12.70;;;7.17;;
62790;SDS011;48830;53.426;10.300;2022-12-10T07:46:08;11.40;;;6.50;;
62790;SDS011;48830;53.426;10.300;2022-12-10T07:48:37;11.60;;;5.93;;
62790;SDS011;48830;53.426;10.300;2022-12-10T07:51:06;10.30;;;6.20;;
62790;SDS011;48830;53.426;10.300;2022-12-10T07:53:37;9.70;;;5.60;;
62790;SDS011;48830;53.426;10.300;2022-12-10T07:56:04;11.43;;;5.93;;
62790;SDS011;48830;53.426;10.300;2022-12-10T07:58:30;11.63;;;6.30;;
62790;SDS011;48830;53.426;10.300;2022-12-10T08:00:57;11.73;;;6.00;;
62790;SDS011;48830;53.426;10.300;2022-12-10T08:03:23;11.93;;;6.47;;
62790;SDS011;48830;53.426;10.300;2022-12-10T08:05:59;11.43;;;6.33;;
62790;SDS011;48830;53.426;10.300;2022-12-10T08:08:29;11.40;;;6.67;;
62790;SDS011;48830;53.426;10.300;2022-12-10T08:11:00;11.43;;;6.30;;
62790;SDS011;48830;53.426;10.300;2022-12-10T08:13:31;14.83;;;8.67;;
62790;SDS011;48830;53.426;10.300;2022-12-10T08:16:04;13.63;;;7.77;;
62790;SDS011;48830;53.426;10.300;2022-12-10T08:18:35;11.27;;;6.90;;
62790;SDS011;48830;53.426;10.300;2022-12-10T08:21:04;12.20;;;7.37;;
62790;SDS011;48830;53.426;10.300;2022-12-10T08:23:36;12.03;;;7.03;;
62790;SDS011;48830;53.426;10.300;2022-12-10T08:26:06;15.27;;;7.53;;
62790;SDS011;48830;53.426;10.300;2022-12-10T08:28:33;12.63;;;6.37;;
62790;SDS011;48830;53.426;10.300;2022-12-10T08:31:07;12.60;;;7.13;;
62790;SDS011;48830;53.426;10.300;2022-12-10T08:33:35;11.87;;;5.97;;
62790;SDS011;48830;53.426;10.300;2022-12-10T08:36:02;14.00;;;7.27;;
62790;SDS011;48830;53.426;10.300;2022-12-10T08:38:32;14.13;;;6.83;;
62790;SDS011;48830;53.426;10.300;2022-12-10T08:41:10;12.97;;;8.07;;
62790;SDS011;48830;53.426;10.300;2022-12-10T08:43:44;12.23;;;7.53;;
62790;SDS011;48830;53.426;10.300;2022-12-10T08:46:11;13.77;;;7.50;;
62790;SDS011;48830;53.426;10.300;2022-12-10T08:48:40;13.43;;;7.43;;
62790;SDS011;48830;53.426;10.300;2022-12-10T08:51:07;14.00;;;6.87;;
62790;SDS011;48830;53.426;10.300;2022-12-10T08:53:33;12.30;;;7.70;;
62790;SDS011;48830;53.426;10.300;2022-12-10T08:56:00;13.00;;;6.93;;
62790;SDS011;48830;53.426;10.300;2022-12-10T08:58:26;12.60;;;7.10;;
62790;SDS011;48830;53.426;10.300;2022-12-10T09:00:52;14.30;;;8.53;;
62790;SDS011;48830;53.426;10.300;2022-12-10T09:03:18;14.80;;;7.33;;
62790;SDS011;48830;53.426;10.300;2022-12-10T09:05:49;15.20;;;8.23;;
62790;SDS011;48830;53.426;10.300;2022-12-10T09:08:17;16.27;;;9.80;;
62790;SDS011;48830;53.426;10.300;2022-12-10T09:10:43;17.33;;;10.10;;
62790;SDS011;48830;53.426;10.300;2022-12-10T09:13:11;19.27;;;10.47;;
62790;SDS011;48830;53.426;10.300;2022-12-10T09:15:40;18.97;;;9.13;;
62790;SDS011;48830;53.426;10.300;2022-12-10T09:18:13;13.27;;;7.70;;
62790;SDS011;48830;53.426;10.300;2022-12-10T09:20:44;13.67;;;7.60;;
62790;SDS011;48830;53.426;10.300;2022-12-10T09:23:13;17.90;;;9.27;;
62790;SDS011;48830;53.426;10.300;2022-12-10T09:25:44;17.43;;;9.50;;
62790;SDS011;48830;53.426;10.300;2022-12-10T09:28:13;17.40;;;9.37;;
62790;SDS011;48830;53.426;10.300;2022-12-10T09:30:42;16.00;;;8.97;;
62790;SDS011;48830;53.426;10.300;2022-12-10T09:33:19;14.97;;;8.40;;
62790;SDS011;48830;53.426;10.300;2022-12-10T09:35:45;14.47;;;7.90;;
62790;SDS011;48830;53.426;10.300;2022-12-10T09:38:13;14.37;;;8.00;;
62790;SDS011;48830;53.426;10.300;2022-12-10T09:40:49;13.70;;;7.67;;
62790;SDS011;48830;53.426;10.300;2022-12-10T09:43:26;14.83;;;8.17;;
62790;SDS011;48830;53.426;10.300;2022-12-10T09:46:13;13.10;;;7.37;;
62790;SDS011;48830;53.426;10.300;2022-12-10T09:51:39;12.93;;;7.23;;
62790;SDS011;48830;53.426;10.300;2022-12-10T09:56:56;14.50;;;7.90;;
62790;SDS011;48830;53.426;10.300;2022-12-10T09:59:44;14.43;;;7.27;;
62790;SDS011;48830;53.426;10.300;2022-12-10T10:04:49;14.93;;;7.93;;
62790;SDS011;48830;53.426;10.300;2022-12-10T10:07:23;15.47;;;8.33;;
62790;SDS011;48830;53.426;10.300;2022-12-10T10:09:58;15.37;;;8.57;;
62790;SDS011;48830;53.426;10.300;2022-12-10T10:12:28;13.90;;;7.80;;
62790;SDS011;48830;53.426;10.300;2022-12-10T10:14:59;14.60;;;7.43;;
62790;SDS011;48830;53.426;10.300;2022-12-10T10:17:38;14.97;;;8.10;;
62790;SDS011;48830;53.426;10.300;2022-12-10T10:20:19;14.73;;;7.90;;
62790;SDS011;48830;53.426;10.300;2022-12-10T10:22:51;15.60;;;7.73;;
62790;SDS011;48830;53.426;10.300;2022-12-10T10:25:29;14.93;;;8.53;;
62790;SDS011;48830;53.426;10.300;2022-12-10T10:27:58;14.37;;;7.27;;
62790;SDS011;48830;53.426;10.300;2022-12-10T10:30:26;14.70;;;7.87;;
62790;SDS011;48830;53.426;10.300;2022-12-10T10:32:54;13.60;;;7.40;;
62790;SDS011;48830;53.426;10.300;2022-12-10T10:35:26;15.00;;;8.60;;
62790;SDS011;48830;53.426;10.300;2022-12-10T10:37:57;14.47;;;7.97;;
62790;SDS011;48830;53.426;10.300;2022-12-10T10:40:32;15.33;;;8.03;;
62790;SDS011;48830;53.426;10.300;2022-12-10T10:43:08;19.03;;;9.33;;
62790;SDS011;48830;53.426;10.300;2022-12-10T10:48:30;13.70;;;8.03;;
62790;SDS011;48830;53.426;10.300;2022-12-10T10:53:45;15.20;;;7.93;;
62790;SDS011;48830;53.426;10.300;2022-12-10T11:04:36;14.77;;;8.93;;
62790;SDS011;48830;53.426;10.300;2022-12-10T11:07:26;15.43;;;8.50;;
62790;SDS011;48830;53.426;10.300;2022-12-10T11:10:00;15.77;;;8.20;;
62790;SDS011;48830;53.426;10.300;2022-12-10T11:12:28;16.10;;;8.40;;
62790;SDS011;48830;53.426;10.300;2022-12-10T11:15:01;18.03;;;9.70;;
62790;SDS011;48830;53.426;10.300;2022-12-10T11:17:50;18.90;;;9.27;;
62790;SDS011;48830;53.426;10.300;2022-12-10T11:20:25;15.47;;;8.37;;
62790;SDS011;48830;53.426;10.300;2022-12-10T11:23:02;15.90;;;8.47;;
62790;SDS011;48830;53.426;10.300;2022-12-10T11:44:49;17.97;;;10.20;;
62790;SDS011;48830;53.426;10.300;2022-12-10T11:47:35;16.83;;;8.67;;
62790;SDS011;48830;53.426;10.300;2022-12-10T11:56:07;17.80;;;8.83;;
62790;SDS011;48830;53.426;10.300;2022-12-10T11:59:14;14.97;;;8.17;;
62790;SDS011;48830;53.426;10.300;2022-12-10T12:02:04;16.50;;;8.90;;
62790;SDS011;48830;53.426;10.300;2022-12-10T12:04:54;20.00;;;8.70;;
62790;SDS011;48830;53.426;10.300;2022-12-10T12:07:53;16.30;;;8.33;;
62790;SDS011;48830;53.426;10.300;2022-12-10T12:13:47;16.47;;;8.60;;
62790;SDS011;48830;53.426;10.300;2022-12-10T12:16:22;17.90;;;8.73;;
62790;SDS011;48830;53.426;10.300;2022-12-10T12:19:02;16.83;;;9.10;;
62790;SDS011;48830;53.426;10.300;2022-12-10T12:21:28;14.83;;;8.07;;
62790;SDS011;48830;53.426;10.300;2022-12-10T12:26:38;16.57;;;8.87;;
62790;SDS011;48830;53.426;10.300;2022-12-10T12:29:16;16.07;;;8.13;;
62790;SDS011;48830;53.426;10.300;2022-12-10T12:31:58;16.73;;;8.53;;
62790;SDS011;48830;53.426;10.300;2022-12-10T12:34:49;16.67;;;8.63;;
62790;SDS011;48830;53.426;10.300;2022-12-10T12:37:20;17.57;;;9.23;;
62790;SDS011;48830;53.426;10.300;2022-12-10T12:42:37;17.13;;;8.43;;
62790;SDS011;48830;53.426;10.300;2022-12-10T12:45:10;16.97;;;8.87;;
62790;SDS011;48830;53.426;10.300;2022-12-10T12:50:28;16.43;;;8.50;;
62790;SDS011;48830;53.426;10.300;2022-12-10T12:53:14;16.33;;;8.53;;
62790;SDS011;48830;53.426;10.300;2022-12-10T12:55:47;15.27;;;8.87;;
62790;SDS011;48830;53.426;10.300;2022-12-10T13:04:02;17.50;;;8.80;;
62790;SDS011;48830;53.426;10.300;2022-12-10T13:06:33;16.27;;;9.00;;
62790;SDS011;48830;53.426;10.300;2022-12-10T13:14:35;18.13;;;10.90;;
62790;SDS011;48830;53.426;10.300;2022-12-10T13:17:22;19.00;;;9.50;;
62790;SDS011;48830;53.426;10.300;2022-12-10T13:23:03;16.87;;;8.60;;
62790;SDS011;48830;53.426;10.300;2022-12-10T13:31:18;18.23;;;9.30;;
62790;SDS011;48830;53.426;10.300;2022-12-10T13:33:47;18.93;;;10.13;;
62790;SDS011;48830;53.426;10.300;2022-12-10T13:36:26;17.97;;;9.13;;
62790;SDS011;48830;53.426;10.300;2022-12-10T13:38:56;16.63;;;9.37;;
62790;SDS011;48830;53.426;10.300;2022-12-10T13:41:28;18.63;;;9.43;;
62790;SDS011;48830;53.426;10.300;2022-12-10T13:50:19;21.03;;;10.03;;
62790;SDS011;48830;53.426;10.300;2022-12-10T14:07:18;17.60;;;9.60;;
62790;SDS011;48830;53.426;10.300;2022-12-10T14:09:54;17.63;;;9.30;;
62790;SDS011;48830;53.426;10.300;2022-12-10T14:12:27;17.03;;;9.17;;
62790;SDS011;48830;53.426;10.300;2022-12-10T14:15:14;16.97;;;9.53;;
62790;SDS011;48830;53.426;10.300;2022-12-10T14:17:49;17.60;;;9.57;;
62790;SDS011;48830;53.426;10.300;2022-12-10T14:20:22;17.77;;;9.27;;
62790;SDS011;48830;53.426;10.300;2022-12-10T14:22:57;17.57;;;8.73;;
62790;SDS011;48830;53.426;10.300;2022-12-10T14:25:48;17.30;;;9.23;;
62790;SDS011;48830;53.426;10.300;2022-12-10T14:28:16;20.50;;;11.20;;
62790;SDS011;48830;53.426;10.300;2022-12-10T14:30:46;20.20;;;10.90;;
62790;SDS011;48830;53.426;10.300;2022-12-10T14:33:17;18.40;;;9.70;;
62790;SDS011;48830;53.426;10.300;2022-12-10T14:35:47;18.30;;;9.80;;
62790;SDS011;48830;53.426;10.300;2022-12-10T14:38:18;20.47;;;10.63;;
62790;SDS011;48830;53.426;10.300;2022-12-10T14:41:00;19.70;;;9.17;;
62790;SDS011;48830;53.426;10.300;2022-12-10T14:43:32;16.63;;;9.20;;
62790;SDS011;48830;53.426;10.300;2022-12-10T14:46:03;16.67;;;8.83;;
62790;SDS011;48830;53.426;10.300;2022-12-10T14:48:41;18.60;;;8.73;;
62790;SDS011;48830;53.426;10.300;2022-12-10T14:51:13;16.03;;;8.60;;
62790;SDS011;48830;53.426;10.300;2022-12-10T14:53:44;17.60;;;10.13;;
62790;SDS011;48830;53.426;10.300;2022-12-10T14:59:14;17.67;;;9.10;;
62790;SDS011;48830;53.426;10.300;2022-12-10T15:01:51;16.70;;;9.13;;
62790;SDS011;48830;53.426;10.300;2022-12-10T15:04:38;17.83;;;9.83;;
62790;SDS011;48830;53.426;10.300;2022-12-10T15:07:18;17.73;;;8.97;;
62790;SDS011;48830;53.426;10.300;2022-12-10T15:09:52;18.93;;;9.50;;
62790;SDS011;48830;53.426;10.300;2022-12-10T15:15:30;17.07;;;9.20;;
62790;SDS011;48830;53.426;10.300;2022-12-10T15:20:36;19.97;;;9.60;;
62790;SDS011;48830;53.426;10.300;2022-12-10T15:28:29;19.83;;;10.60;;
62790;SDS011;48830;53.426;10.300;2022-12-10T15:31:20;22.13;;;9.30;;
62790;SDS011;48830;53.426;10.300;2022-12-10T15:34:00;17.20;;;9.43;;
62790;SDS011;48830;53.426;10.300;2022-12-10T15:39:05;16.43;;;9.50;;
62790;SDS011;48830;53.426;10.300;2022-12-10T15:41:46;19.37;;;9.70;;
62790;SDS011;48830;53.426;10.300;2022-12-10T15:44:40;18.83;;;9.87;;
62790;SDS011;48830;53.426;10.300;2022-12-10T15:47:18;15.80;;;8.87;;
62790;SDS011;48830;53.426;10.300;2022-12-10T15:49:45;15.07;;;8.33;;
62790;SDS011;48830;53.426;10.300;2022-12-10T15:52:16;17.13;;;9.43;;
62790;SDS011;48830;53.426;10.300;2022-12-10T15:54:53;21.37;;;12.27;;
62790;SDS011;48830;53.426;10.300;2022-12-10T16:00:04;25.83;;;14.37;;
62790;SDS011;48830;53.426;10.300;2022-12-10T16:02:57;23.27;;;12.63;;
62790;SDS011;48830;53.426;10.300;2022-12-10T16:05:32;22.73;;;12.77;;
62790;SDS011;48830;53.426;10.300;2022-12-10T16:08:21;19.93;;;11.47;;
62790;SDS011;48830;53.426;10.300;2022-12-10T16:10:49;23.17;;;12.60;;
62790;SDS011;48830;53.426;10.300;2022-12-10T16:13:22;21.50;;;13.00;;
62790;SDS011;48830;53.426;10.300;2022-12-10T16:15:54;18.20;;;9.83;;
62790;SDS011;48830;53.426;10.300;2022-12-10T16:18:23;19.60;;;11.63;;
62790;SDS011;48830;53.426;10.300;2022-12-10T16:20:52;17.30;;;9.13;;
62790;SDS011;48830;53.426;10.300;2022-12-10T16:23:30;14.80;;;7.83;;
62790;SDS011;48830;53.426;10.300;2022-12-10T16:25:56;16.93;;;9.20;;
62790;SDS011;48830;53.426;10.300;2022-12-10T16:28:25;17.00;;;8.27;;
62790;SDS011;48830;53.426;10.300;2022-12-10T16:31:01;16.80;;;8.80;;
62790;SDS011;48830;53.426;10.300;2022-12-10T16:33:30;18.20;;;9.37;;
62790;SDS011;48830;53.426;10.300;2022-12-10T16:35:58;15.40;;;8.80;;
62790;SDS011;48830;53.426;10.300;2022-12-10T16:38:27;18.37;;;9.67;;
62790;SDS011;48830;53.426;10.300;2022-12-10T16:41:17;20.00;;;9.87;;
62790;SDS011;48830;53.426;10.300;2022-12-10T16:43:53;18.07;;;9.87;;
62790;SDS011;48830;53.426;10.300;2022-12-10T16:46:25;17.43;;;8.63;;
62790;SDS011;48830;53.426;10.300;2022-12-10T16:48:51;15.67;;;8.90;;
62790;SDS011;48830;53.426;10.300;2022-12-10T16:51:26;15.17;;;8.37;;
62790;SDS011;48830;53.426;10.300;2022-12-10T16:53:54;16.30;;;9.37;;
62790;SDS011;48830;53.426;10.300;2022-12-10T16:56:21;15.37;;;7.63;;
62790;SDS011;48830;53.426;10.300;2022-12-10T16:58:50;16.30;;;8.90;;
62790;SDS011;48830;53.426;10.300;2022-12-10T17:01:22;13.27;;;8.03;;
62790;SDS011;48830;53.426;10.300;2022-12-10T17:03:50;15.50;;;8.37;;
62790;SDS011;48830;53.426;10.300;2022-12-10T17:06:16;14.97;;;7.93;;